Lapine, Alabama
Current Conditions -  °F | °C
As of 11:53 AM on Tuesday 21 Oct 2014 (Local Time) from KTOI Reporting Station
Clear Clear  
Wind Chill: 77°   Ceiling: Unl
Heat Index: 78°   Visibility: 10mi
Dew Point: 51°   Wind: 9mph
Humidity: 40%   Direction: 340°NNW
Pressure: 30.04"   Gusts: NA
Location:  31.97°N, 86.28°W
Report Text: KTOI 211653Z AUTO 34008KT 10SM CLR 25/11 A3004 RMK AO2 SLP171 T02500106
Loading
Personal Weather Stations






























Interactive Weather Map
Tropical Storm Tracking
New forecast layout! Learn more

10-Day Weather Forecast

Advertisements
Track Severe Weather on mobile